createdAt,value
2023-05-06T00:00:59.696Z,3.75
2023-05-06T00:03:26.398Z,4.32
2023-05-06T00:05:53.013Z,4.68
2023-05-06T00:08:19.496Z,4.25
2023-05-06T00:10:46.227Z,3.63
2023-05-06T00:13:13.170Z,3.45
2023-05-06T00:15:40.008Z,3.50
2023-05-06T00:18:06.845Z,3.65
2023-05-06T00:20:33.258Z,3.15
2023-05-06T00:22:59.740Z,3.53
2023-05-06T00:25:26.085Z,4.20
2023-05-06T00:27:53.280Z,4.55
2023-05-06T00:30:19.716Z,3.63
2023-05-06T00:32:46.212Z,3.60
2023-05-06T00:35:12.627Z,3.75
2023-05-06T00:37:41.819Z,3.38
2023-05-06T00:40:09.634Z,3.85
2023-05-06T00:42:36.127Z,4.05
2023-05-06T00:45:02.550Z,3.60
2023-05-06T00:47:29.059Z,4.47
2023-05-06T00:49:56.118Z,4.10
2023-05-06T00:52:26.132Z,4.30
2023-05-06T00:54:52.541Z,5.30
2023-05-06T00:57:19.008Z,4.75
2023-05-06T00:59:45.539Z,4.00
2023-05-06T01:02:12.114Z,4.47
2023-05-06T01:04:38.652Z,4.32
2023-05-06T01:07:32.100Z,4.35
2023-05-06T01:10:07.789Z,4.50
2023-05-06T01:12:43.112Z,5.38
2023-05-06T01:15:17.285Z,5.32
2023-05-06T01:17:46.341Z,5.10
2023-05-06T01:20:13.184Z,5.30
2023-05-06T01:22:39.658Z,5.70
2023-05-06T01:25:06.853Z,4.97
2023-05-06T01:27:33.373Z,5.55
2023-05-06T01:30:00.620Z,5.85
2023-05-06T01:32:46.608Z,5.53
2023-05-06T01:35:46.975Z,5.22
2023-05-06T01:38:19.367Z,5.60
2023-05-06T01:40:54.433Z,5.25
2023-05-06T01:43:24.455Z,3.72
2023-05-06T01:45:54.100Z,5.18
2023-05-06T01:48:27.958Z,5.47
2023-05-06T01:50:54.460Z,5.15
2023-05-06T01:53:21.021Z,6.03
2023-05-06T01:55:48.624Z,5.65
2023-05-06T01:58:15.794Z,5.50
2023-05-06T02:00:42.542Z,5.95
2023-05-06T02:03:09.191Z,5.45
2023-05-06T02:05:35.904Z,5.43
2023-05-06T02:08:02.425Z,5.40
2023-05-06T02:10:28.814Z,5.25
2023-05-06T02:12:55.181Z,4.80
2023-05-06T02:15:21.730Z,4.90
2023-05-06T02:17:48.294Z,5.43
2023-05-06T02:20:14.872Z,5.47
2023-05-06T02:22:41.195Z,5.93
2023-05-06T02:25:08.938Z,5.32
2023-05-06T02:27:35.594Z,5.45
2023-05-06T02:30:02.703Z,5.15
2023-05-06T02:32:29.099Z,5.13
2023-05-06T02:34:55.540Z,6.75
2023-05-06T02:37:21.988Z,5.25
2023-05-06T02:39:48.449Z,5.78
2023-05-06T02:42:16.292Z,5.75
2023-05-06T02:44:42.740Z,5.60
2023-05-06T02:47:09.254Z,5.82
2023-05-06T02:49:35.876Z,5.15
2023-05-06T02:52:02.246Z,5.85
2023-05-06T02:54:28.776Z,5.38
2023-05-06T02:56:55.159Z,5.30
2023-05-06T02:59:22.088Z,5.18
2023-05-06T03:01:48.503Z,5.10
2023-05-06T03:04:14.886Z,3.97
2023-05-06T03:06:41.349Z,3.28
2023-05-06T03:09:08.580Z,4.90
2023-05-06T03:11:38.043Z,4.78
2023-05-06T03:14:04.426Z,4.63
2023-05-06T03:16:30.817Z,4.88
2023-05-06T03:18:57.343Z,5.70
2023-05-06T03:21:23.772Z,5.00
2023-05-06T03:23:50.167Z,5.15
2023-05-06T03:26:16.587Z,6.07
2023-05-06T03:28:44.643Z,5.22
2023-05-06T03:31:11.173Z,4.75
2023-05-06T03:33:37.594Z,5.18
2023-05-06T03:36:04.605Z,5.47
2023-05-06T03:38:31.064Z,4.88
2023-05-06T03:40:57.491Z,5.45
2023-05-06T03:43:24.259Z,5.68
2023-05-06T03:45:50.761Z,4.97
2023-05-06T03:48:17.352Z,5.13
2023-05-06T03:50:43.785Z,5.30
2023-05-06T03:53:10.321Z,4.72
2023-05-06T03:55:36.696Z,5.00
2023-05-06T03:58:03.153Z,4.65
2023-05-06T04:00:29.542Z,4.57
2023-05-06T04:02:55.935Z,4.78
2023-05-06T04:05:22.487Z,4.57
2023-05-06T04:07:48.977Z,4.60
2023-05-06T04:10:15.704Z,4.82
2023-05-06T04:12:42.082Z,5.13
2023-05-06T04:15:09.109Z,4.18
2023-05-06T04:17:35.830Z,4.93
2023-05-06T04:20:08.831Z,4.25
2023-05-06T04:22:35.292Z,4.30
2023-05-06T04:25:01.684Z,5.63
2023-05-06T04:27:29.766Z,4.82
2023-05-06T04:29:56.865Z,5.00
2023-05-06T04:32:25.336Z,5.43
2023-05-06T04:34:53.145Z,4.60
2023-05-06T04:37:20.150Z,4.85
2023-05-06T04:39:49.749Z,6.25
2023-05-06T04:42:16.707Z,5.93
2023-05-06T04:44:43.630Z,6.45
2023-05-06T04:47:10.366Z,5.50
2023-05-06T04:49:36.912Z,6.30
2023-05-06T04:52:06.117Z,6.10
2023-05-06T04:54:35.535Z,5.88
2023-05-06T04:57:03.219Z,5.80
2023-05-06T04:59:29.736Z,5.35
2023-05-06T05:01:56.136Z,4.95
2023-05-06T05:04:22.578Z,4.70
2023-05-06T05:06:49.164Z,5.13
2023-05-06T05:09:15.623Z,5.80
2023-05-06T05:11:42.179Z,5.85
2023-05-06T05:14:10.863Z,6.50
2023-05-06T05:16:37.637Z,6.25
2023-05-06T05:19:04.388Z,6.35
2023-05-06T05:21:31.930Z,5.65
2023-05-06T05:23:58.394Z,5.97
2023-05-06T05:26:24.743Z,5.63
2023-05-06T05:28:54.232Z,6.05
2023-05-06T05:31:20.788Z,6.35
2023-05-06T05:33:47.525Z,6.53
2023-05-06T05:36:15.350Z,7.20
2023-05-06T05:38:41.844Z,6.32
2023-05-06T05:41:08.222Z,7.28
2023-05-06T05:43:34.886Z,8.18
2023-05-06T05:46:01.478Z,9.00
2023-05-06T05:48:27.884Z,8.15
2023-05-06T05:51:00.099Z,8.73
2023-05-06T05:53:26.754Z,9.93
2023-05-06T05:55:54.140Z,9.10
2023-05-06T05:58:20.676Z,9.32
2023-05-06T06:00:47.235Z,9.25
2023-05-06T06:03:13.724Z,10.15
2023-05-06T06:05:40.142Z,7.97
2023-05-06T06:08:06.725Z,8.68
2023-05-06T06:10:33.097Z,9.85
2023-05-06T06:12:59.517Z,10.40
2023-05-06T06:15:25.932Z,10.13
2023-05-06T06:17:55.664Z,9.90
2023-05-06T06:20:22.271Z,8.95
2023-05-06T06:22:48.843Z,10.10
2023-05-06T06:25:15.315Z,8.13
2023-05-06T06:27:41.649Z,8.77
2023-05-06T06:30:08.917Z,10.55
2023-05-06T06:32:35.460Z,9.50
2023-05-06T06:35:04.218Z,9.75
2023-05-06T06:37:30.774Z,10.40
2023-05-06T06:39:57.098Z,9.65
2023-05-06T06:42:23.593Z,10.20
2023-05-06T06:44:49.978Z,8.80
2023-05-06T06:47:16.635Z,9.05
2023-05-06T06:49:43.163Z,10.13
2023-05-06T06:52:09.542Z,10.43
2023-05-06T06:54:37.862Z,10.23
2023-05-06T06:57:06.035Z,10.35
2023-05-06T06:59:32.506Z,10.82
2023-05-06T07:01:59.060Z,11.23
2023-05-06T07:04:25.691Z,10.90
2023-05-06T07:06:52.101Z,11.68
2023-05-06T07:09:18.451Z,11.10
2023-05-06T07:11:45.136Z,11.20
2023-05-06T07:14:12.727Z,11.18
2023-05-06T07:16:42.954Z,12.50
2023-05-06T07:19:10.882Z,11.88
2023-05-06T07:21:37.382Z,10.60
2023-05-06T07:24:03.751Z,11.90
2023-05-06T07:26:30.142Z,11.85
2023-05-06T07:28:56.663Z,11.70
2023-05-06T07:31:23.399Z,12.23
2023-05-06T07:33:49.956Z,11.70
2023-05-06T07:36:16.335Z,11.70
2023-05-06T07:38:42.813Z,11.30
2023-05-06T07:41:09.177Z,11.77
2023-05-06T07:43:35.536Z,11.70
2023-05-06T07:46:05.818Z,11.68
2023-05-06T07:48:33.153Z,11.10
2023-05-06T07:51:00.135Z,13.27
2023-05-06T07:53:28.923Z,12.60
2023-05-06T07:58:24.907Z,11.82
2023-05-06T08:00:51.903Z,12.02
2023-05-06T08:03:18.373Z,12.55
2023-05-06T08:05:44.803Z,12.25
2023-05-06T08:08:11.204Z,12.45
2023-05-06T08:10:37.672Z,13.07
2023-05-06T08:13:04.047Z,12.95
2023-05-06T08:15:30.458Z,12.18
2023-05-06T08:18:02.152Z,12.18
2023-05-06T08:20:33.629Z,12.25
2023-05-06T08:23:00.995Z,12.50
2023-05-06T08:25:27.443Z,13.15
2023-05-06T08:27:53.796Z,12.98
2023-05-06T08:30:20.192Z,12.82
2023-05-06T08:32:46.773Z,12.90
2023-05-06T08:35:13.954Z,11.32
2023-05-06T08:37:41.586Z,13.70
2023-05-06T08:40:20.561Z,13.45
2023-05-06T08:42:50.404Z,12.82
2023-05-06T08:45:17.733Z,12.10
2023-05-06T08:47:44.723Z,12.23
2023-05-06T08:50:11.743Z,13.15
2023-05-06T08:52:39.263Z,11.40
2023-05-06T08:55:07.097Z,12.10
2023-05-06T08:57:34.454Z,12.25
2023-05-06T09:00:01.483Z,12.35
2023-05-06T09:02:28.424Z,12.48
2023-05-06T09:04:56.371Z,12.57
2023-05-06T09:07:24.193Z,11.35
2023-05-06T09:09:52.152Z,12.57
2023-05-06T09:12:19.874Z,11.45
2023-05-06T09:14:50.272Z,11.52
2023-05-06T09:17:26.570Z,14.25
2023-05-06T09:19:54.483Z,13.05
2023-05-06T09:22:24.029Z,11.93
2023-05-06T09:24:56.492Z,12.40
2023-05-06T09:27:28.273Z,12.45
2023-05-06T09:30:09.536Z,14.07
2023-05-06T09:32:39.023Z,11.25
2023-05-06T09:35:11.449Z,12.35
2023-05-06T09:37:38.073Z,11.07
2023-05-06T09:40:04.917Z,10.75
2023-05-06T09:42:31.404Z,11.25
2023-05-06T09:45:01.899Z,11.55
2023-05-06T09:47:33.982Z,11.93
2023-05-06T09:50:04.000Z,12.10
2023-05-06T09:52:31.325Z,12.85
2023-05-06T09:54:57.947Z,11.43
2023-05-06T09:57:24.440Z,11.27
2023-05-06T09:59:54.221Z,12.23
2023-05-06T10:02:23.302Z,11.18
2023-05-06T10:04:51.047Z,11.60
2023-05-06T10:07:22.728Z,11.85
2023-05-06T10:09:51.198Z,11.65
2023-05-06T10:12:18.275Z,11.02
2023-05-06T10:14:44.754Z,10.57
2023-05-06T10:17:12.722Z,10.63
2023-05-06T10:19:46.539Z,10.63
2023-05-06T10:22:45.805Z,9.82
2023-05-06T10:27:49.807Z,10.07
2023-05-06T10:30:17.152Z,11.77
2023-05-06T10:32:45.004Z,10.05
2023-05-06T10:35:25.137Z,9.18
2023-05-06T10:37:52.959Z,8.82
2023-05-06T10:40:19.734Z,8.43
2023-05-06T10:42:46.180Z,9.13
2023-05-06T10:45:15.234Z,9.48
2023-05-06T10:47:57.870Z,9.50
2023-05-06T10:50:25.856Z,8.25
2023-05-06T10:52:57.738Z,7.22
2023-05-06T10:55:35.501Z,9.05
2023-05-06T10:58:10.874Z,7.85
2023-05-06T11:00:38.096Z,8.00
2023-05-06T11:03:12.162Z,6.15
2023-05-06T11:05:49.533Z,6.32
2023-05-06T11:08:22.934Z,6.03
2023-05-06T11:10:49.394Z,5.47
2023-05-06T11:13:22.344Z,5.22
2023-05-06T11:15:52.770Z,5.50
2023-05-06T11:18:25.461Z,5.55
2023-05-06T11:21:12.661Z,3.78
2023-05-06T11:23:42.354Z,4.13
2023-05-06T11:26:10.386Z,3.67
2023-05-06T11:28:36.996Z,4.45
2023-05-06T11:31:05.023Z,5.57
2023-05-06T11:33:36.281Z,5.60
2023-05-06T11:36:04.167Z,5.90
2023-05-06T11:38:44.302Z,5.82
2023-05-06T11:41:11.488Z,6.72
2023-05-06T11:43:37.853Z,6.07
2023-05-06T11:46:04.882Z,6.05
2023-05-06T11:48:31.546Z,6.82
2023-05-06T11:50:58.179Z,6.15
2023-05-06T11:53:27.221Z,7.35
2023-05-06T11:55:54.042Z,6.78
2023-05-06T11:58:26.284Z,6.43
2023-05-06T12:01:00.166Z,6.75
2023-05-06T12:03:28.699Z,5.78
2023-05-06T12:05:56.016Z,5.30
2023-05-06T12:08:29.656Z,5.80
2023-05-06T12:10:59.464Z,5.20
2023-05-06T12:13:26.967Z,5.95
2023-05-06T12:15:59.525Z,5.68
2023-05-06T12:18:26.572Z,5.88
2023-05-06T12:20:54.589Z,5.60
2023-05-06T12:23:22.052Z,5.03
2023-05-06T12:26:02.252Z,5.20
2023-05-06T12:28:28.862Z,6.68
2023-05-06T12:30:55.170Z,6.88
2023-05-06T12:33:21.530Z,7.00
2023-05-06T12:35:47.997Z,6.32
2023-05-06T12:38:16.680Z,6.55
2023-05-06T12:40:53.281Z,6.53
2023-05-06T12:43:29.475Z,6.55
2023-05-06T12:46:07.655Z,5.78
2023-05-06T12:48:34.624Z,5.80
2023-05-06T12:51:16.800Z,6.32
2023-05-06T12:53:43.180Z,6.60
2023-05-06T12:56:09.564Z,6.93
2023-05-06T12:58:37.686Z,6.35
2023-05-06T13:01:04.388Z,7.18
2023-05-06T13:03:31.001Z,7.85
2023-05-06T13:05:57.380Z,9.35
2023-05-06T13:08:23.693Z,7.97
2023-05-06T13:10:50.019Z,8.27
2023-05-06T13:13:16.636Z,7.80
2023-05-06T13:15:43.398Z,8.00
2023-05-06T13:18:09.787Z,7.85
2023-05-06T13:20:36.588Z,7.55
2023-05-06T13:23:03.772Z,8.07
2023-05-06T13:25:30.309Z,8.27
2023-05-06T13:27:56.680Z,7.68
2023-05-06T13:30:23.328Z,7.22
2023-05-06T13:32:49.742Z,7.13
2023-05-06T13:35:16.268Z,7.40
2023-05-06T13:37:45.371Z,6.38
2023-05-06T13:40:12.540Z,5.30
2023-05-06T13:42:39.217Z,6.20
2023-05-06T13:45:06.205Z,5.88
2023-05-06T13:47:32.786Z,5.10
2023-05-06T13:49:59.262Z,6.38
2023-05-06T13:52:25.922Z,5.75
2023-05-06T13:54:52.335Z,6.20
2023-05-06T13:57:18.869Z,5.40
2023-05-06T13:59:45.394Z,4.45
2023-05-06T14:02:12.609Z,4.07
2023-05-06T14:04:42.036Z,3.55
2023-05-06T14:07:08.690Z,2.83
2023-05-06T14:09:35.716Z,3.35
2023-05-06T14:12:02.792Z,2.25
2023-05-06T14:14:29.132Z,2.28
2023-05-06T14:16:55.615Z,2.42
2023-05-06T14:19:22.048Z,2.63
2023-05-06T14:21:48.375Z,2.95
2023-05-06T14:24:14.700Z,2.45
2023-05-06T14:26:41.425Z,2.35
2023-05-06T14:29:08.043Z,2.17
2023-05-06T14:31:34.712Z,2.25
2023-05-06T14:34:02.009Z,2.50
2023-05-06T14:36:28.492Z,1.83
2023-05-06T14:38:54.811Z,1.88
2023-05-06T14:41:21.138Z,2.08
2023-05-06T14:43:47.460Z,2.17
2023-05-06T14:46:14.649Z,1.88
2023-05-06T14:48:41.476Z,2.25
2023-05-06T14:51:07.833Z,1.90
2023-05-06T14:53:34.182Z,1.88
2023-05-06T14:56:03.953Z,1.52
2023-05-06T14:58:30.313Z,1.42
2023-05-06T15:00:56.954Z,1.45
2023-05-06T15:03:23.354Z,1.60
2023-05-06T15:05:50.866Z,1.92
2023-05-06T15:08:17.265Z,2.10
2023-05-06T15:10:44.362Z,1.95
2023-05-06T15:13:10.902Z,1.40
2023-05-06T15:15:37.461Z,1.63
2023-05-06T15:18:09.565Z,1.77
2023-05-06T15:20:36.590Z,2.00
2023-05-06T15:23:02.981Z,3.70
2023-05-06T15:25:35.805Z,2.83
2023-05-06T15:28:05.006Z,3.55
2023-05-06T15:30:31.588Z,2.85
2023-05-06T15:32:58.001Z,2.10
2023-05-06T15:35:24.402Z,1.95
2023-05-06T15:37:55.475Z,2.10
2023-05-06T15:40:25.380Z,1.98
2023-05-06T15:42:52.408Z,2.20
2023-05-06T15:45:19.510Z,1.80
2023-05-06T15:47:46.250Z,2.20
2023-05-06T15:50:21.242Z,1.80
2023-05-06T15:52:58.640Z,1.80
2023-05-06T15:55:26.376Z,1.90
2023-05-06T15:57:54.582Z,2.40
2023-05-06T16:00:21.861Z,2.03
2023-05-06T16:02:48.528Z,1.77
2023-05-06T16:05:15.146Z,1.48
2023-05-06T16:07:43.117Z,1.75
2023-05-06T16:10:09.666Z,2.13
2023-05-06T16:12:36.279Z,1.85
2023-05-06T16:15:03.133Z,2.00
2023-05-06T16:17:29.679Z,1.90
2023-05-06T16:19:56.046Z,2.20
2023-05-06T16:22:22.388Z,2.00
2023-05-06T16:24:48.744Z,2.55
2023-05-06T16:27:16.149Z,2.15
2023-05-06T16:29:42.578Z,2.22
2023-05-06T16:32:09.047Z,1.88
2023-05-06T16:34:38.884Z,2.25
2023-05-06T16:37:07.770Z,2.00
2023-05-06T16:39:34.133Z,2.17
2023-05-06T16:42:00.776Z,1.80
2023-05-06T16:44:28.799Z,1.75
2023-05-06T16:46:55.186Z,1.70
2023-05-06T16:49:21.987Z,1.80
2023-05-06T16:51:52.411Z,1.98
2023-05-06T16:54:18.752Z,1.65
2023-05-06T16:56:52.130Z,1.80
2023-05-06T16:59:21.735Z,2.10
2023-05-06T17:01:48.870Z,3.30
2023-05-06T17:04:15.967Z,3.38
2023-05-06T17:06:42.371Z,1.73
2023-05-06T17:09:08.696Z,1.88
2023-05-06T17:11:35.196Z,1.80
2023-05-06T17:14:01.654Z,1.75
2023-05-06T17:16:28.094Z,1.50
2023-05-06T17:18:54.617Z,1.70
2023-05-06T17:21:21.355Z,1.70
2023-05-06T17:23:47.872Z,1.30
2023-05-06T17:26:16.575Z,1.20
2023-05-06T17:28:43.310Z,1.67
2023-05-06T17:31:09.773Z,1.63
2023-05-06T17:33:36.491Z,1.52
2023-05-06T17:36:02.945Z,1.50
2023-05-06T17:38:29.344Z,1.35
2023-05-06T17:40:55.678Z,1.42
2023-05-06T17:43:22.015Z,1.75
2023-05-06T17:45:48.576Z,1.50
2023-05-06T17:48:15.022Z,1.27
2023-05-06T17:50:47.396Z,1.70
2023-05-06T17:53:14.254Z,1.65
2023-05-06T17:55:41.346Z,1.70
2023-05-06T17:58:07.754Z,1.45
2023-05-06T18:00:34.245Z,2.05
2023-05-06T18:03:00.911Z,1.80
2023-05-06T18:05:27.719Z,1.88
2023-05-06T18:07:54.104Z,2.08
2023-05-06T18:10:20.486Z,2.13
2023-05-06T18:12:46.990Z,2.50
2023-05-06T18:15:13.898Z,2.47
2023-05-06T18:17:40.563Z,2.92
2023-05-06T18:20:07.991Z,3.00
2023-05-06T18:22:34.860Z,2.95
2023-05-06T18:25:01.266Z,3.25
2023-05-06T18:27:29.502Z,3.38
2023-05-06T18:29:56.005Z,3.25
2023-05-06T18:32:22.484Z,4.05
2023-05-06T18:34:48.903Z,3.78
2023-05-06T18:37:15.381Z,3.92
2023-05-06T18:39:42.668Z,4.82
2023-05-06T18:42:09.375Z,4.53
2023-05-06T18:44:35.892Z,4.50
2023-05-06T18:47:02.380Z,4.97
2023-05-06T18:49:30.580Z,4.78
2023-05-06T18:51:57.393Z,4.55
2023-05-06T18:54:24.231Z,4.95
2023-05-06T18:56:54.574Z,4.68
2023-05-06T18:59:21.436Z,4.93
2023-05-06T19:01:47.786Z,5.13
2023-05-06T19:04:14.676Z,5.25
2023-05-06T19:06:41.393Z,5.10
2023-05-06T19:09:08.123Z,5.72
2023-05-06T19:11:34.913Z,5.65
2023-05-06T19:14:03.007Z,5.53
2023-05-06T19:16:29.505Z,5.88
2023-05-06T19:18:55.942Z,6.03
2023-05-06T19:21:22.283Z,8.55
2023-05-06T19:23:48.629Z,6.65
2023-05-06T19:26:15.015Z,6.40
2023-05-06T19:28:41.443Z,5.78
2023-05-06T19:31:11.905Z,6.05
2023-05-06T19:33:39.254Z,6.40
2023-05-06T19:36:06.259Z,6.75
2023-05-06T19:38:34.845Z,5.80
2023-05-06T19:43:27.731Z,6.25
2023-05-06T19:45:54.393Z,6.25
2023-05-06T19:48:22.248Z,5.88
2023-05-06T19:50:48.791Z,6.72
2023-05-06T19:53:15.557Z,7.30
2023-05-06T19:55:42.088Z,6.10
2023-05-06T19:58:08.644Z,6.80
2023-05-06T20:00:35.415Z,6.78
2023-05-06T20:03:01.961Z,6.85
2023-05-06T20:05:30.926Z,7.18
2023-05-06T20:07:59.704Z,7.55
2023-05-06T20:10:27.260Z,7.65
2023-05-06T20:12:56.068Z,8.00
2023-05-06T20:15:23.950Z,7.22
2023-05-06T20:17:50.452Z,8.00
2023-05-06T20:20:17.601Z,8.65
2023-05-06T20:22:44.092Z,7.97
2023-05-06T20:25:14.315Z,9.63
2023-05-06T20:27:40.776Z,9.52
2023-05-06T20:30:09.555Z,9.25
2023-05-06T20:32:37.554Z,10.20
2023-05-06T20:35:04.875Z,10.35
2023-05-06T20:37:31.682Z,9.73
2023-05-06T20:39:58.283Z,10.20
2023-05-06T20:42:27.759Z,10.20
2023-05-06T20:44:54.208Z,10.00
2023-05-06T20:47:20.800Z,10.50
2023-05-06T20:49:47.325Z,11.38
2023-05-06T20:52:14.630Z,10.90
2023-05-06T20:54:42.799Z,10.98
2023-05-06T20:57:09.978Z,12.13
2023-05-06T20:59:36.851Z,14.23
2023-05-06T21:02:04.015Z,14.05
2023-05-06T21:04:31.151Z,10.90
2023-05-06T21:06:57.869Z,10.10
2023-05-06T21:09:24.587Z,11.05
2023-05-06T21:11:51.343Z,10.85
2023-05-06T21:14:17.856Z,10.75
2023-05-06T21:16:44.749Z,10.93
2023-05-06T21:19:11.668Z,12.02
2023-05-06T21:21:38.149Z,10.60
2023-05-06T21:24:05.108Z,9.90
2023-05-06T21:26:32.523Z,10.48
2023-05-06T21:28:58.953Z,10.38
2023-05-06T21:31:26.530Z,10.00
2023-05-06T21:33:57.713Z,9.02
2023-05-06T21:36:24.293Z,9.05
2023-05-06T21:39:09.865Z,8.68
2023-05-06T21:41:36.624Z,8.93
2023-05-06T21:44:04.153Z,9.35
2023-05-06T21:46:31.374Z,8.25
2023-05-06T21:48:58.351Z,8.48
2023-05-06T21:51:27.490Z,8.48
2023-05-06T21:53:54.070Z,7.72
2023-05-06T21:56:21.112Z,8.25
2023-05-06T21:58:47.514Z,8.82
2023-05-06T22:01:14.112Z,7.85
2023-05-06T22:03:40.683Z,8.20
2023-05-06T22:06:07.353Z,8.10
2023-05-06T22:08:33.841Z,7.45
2023-05-06T22:11:00.325Z,7.22
2023-05-06T22:13:27.262Z,6.80
2023-05-06T22:15:56.984Z,7.07
2023-05-06T22:18:23.576Z,7.40
2023-05-06T22:20:52.251Z,7.57
2023-05-06T22:25:47.390Z,6.68
2023-05-06T22:28:13.812Z,6.95
2023-05-06T22:30:40.307Z,7.13
2023-05-06T22:33:06.707Z,6.45
2023-05-06T22:35:33.190Z,7.15
2023-05-06T22:37:59.606Z,6.70
2023-05-06T22:40:27.770Z,7.20
2023-05-06T22:42:54.305Z,6.70
2023-05-06T22:45:20.663Z,6.78
2023-05-06T22:47:47.050Z,6.18
2023-05-06T22:50:13.558Z,7.07
2023-05-06T22:52:42.536Z,7.57
2023-05-06T22:55:09.913Z,6.65
2023-05-06T22:57:36.600Z,6.90
2023-05-06T23:00:03.925Z,6.50
2023-05-06T23:02:30.705Z,6.22
2023-05-06T23:04:57.571Z,6.78
2023-05-06T23:07:24.058Z,6.28
2023-05-06T23:09:50.506Z,6.07
2023-05-06T23:12:16.834Z,5.93
2023-05-06T23:14:45.789Z,6.00
2023-05-06T23:17:12.260Z,5.28
2023-05-06T23:19:39.370Z,5.10
2023-05-06T23:22:05.759Z,5.72
2023-05-06T23:24:32.197Z,4.97
2023-05-06T23:26:58.710Z,4.97
2023-05-06T23:29:25.196Z,5.35
2023-05-06T23:31:51.525Z,4.53
2023-05-06T23:34:17.922Z,5.03
2023-05-06T23:36:44.325Z,4.60
2023-05-06T23:39:12.173Z,5.43
2023-05-06T23:41:38.599Z,5.07
2023-05-06T23:44:05.789Z,4.82
2023-05-06T23:46:32.394Z,4.80
2023-05-06T23:48:59.005Z,4.70
2023-05-06T23:51:25.508Z,5.15
2023-05-06T23:53:51.853Z,4.97
2023-05-06T23:56:18.400Z,4.80
2023-05-06T23:58:44.884Z,4.80
